Time,TemperatureF,DewpointF,PressureIn,WindDirection,WindDirectionDegrees,WindSpeedMPH,WindSpeedGustMPH,Humidity,HourlyPrecipIn,Conditions,Clouds,dailyrainin,SoftwareType,DateUTC
2013-10-10 00:06:00,34.8,24.0,29.88,SSE,167,0.0,0.0,65,0.00,,,0.00,weatherlink.com 1.10,2013-10-10 06:06:00,
2013-10-10 00:21:00,35.5,25.0,29.87,SSE,162,0.0,1.0,66,0.00,,,0.00,weatherlink.com 1.10,2013-10-10 06:21:00,
2013-10-10 00:37:00,35.6,25.0,29.86,SSE,162,0.0,1.0,65,0.00,,,0.00,weatherlink.com 1.10,2013-10-10 06:37:00,
2013-10-10 00:52:00,35.9,25.0,29.85,South,169,1.0,2.0,64,0.00,,,0.00,weatherlink.com 1.10,2013-10-10 06:52:00,
2013-10-10 01:07:00,36.6,26.0,29.85,SSE,166,0.0,2.0,65,0.00,,,0.00,weatherlink.com 1.10,2013-10-10 07:07:00,
2013-10-10 01:22:00,39.7,26.0,29.83,SSE,153,0.0,2.0,59,0.00,,,0.00,weatherlink.com 1.10,2013-10-10 07:22:00,
2013-10-10 01:37:00,40.5,27.0,29.83,South,169,0.0,2.0,58,0.00,,,0.00,weatherlink.com 1.10,2013-10-10 07:37:00,
2013-10-10 01:52:00,40.8,27.0,29.83,South,174,0.0,3.0,58,0.00,,,0.00,weatherlink.com 1.10,2013-10-10 07:52:00,
2013-10-10 02:07:00,40.5,28.0,29.83,South,172,0.0,0.0,61,0.00,,,0.00,weatherlink.com 1.10,2013-10-10 08:07:00,
2013-10-10 02:22:00,40.0,27.0,29.83,SSE,163,0.0,0.0,61,0.00,,,0.00,weatherlink.com 1.10,2013-10-10 08:22:00,
2013-10-10 02:37:00,39.1,28.0,29.82,SSE,163,0.0,0.0,65,0.00,,,0.00,weatherlink.com 1.10,2013-10-10 08:37:00,
2013-10-10 02:52:00,38.8,28.0,29.81,SSE,157,0.0,1.0,66,0.00,,,0.00,weatherlink.com 1.10,2013-10-10 08:52:00,
2013-10-10 03:07:00,39.4,29.0,29.79,SSE,164,0.0,2.0,66,0.00,,,0.00,weatherlink.com 1.10,2013-10-10 09:07:00,
2013-10-10 03:22:00,37.7,29.0,29.79,SSE,164,0.0,2.0,71,0.00,,,0.00,weatherlink.com 1.10,2013-10-10 09:22:00,
2013-10-10 03:37:00,37.0,29.0,29.78,SSE,164,0.0,1.0,74,0.00,,,0.00,weatherlink.com 1.10,2013-10-10 09:37:00,
2013-10-10 03:52:00,37.0,29.0,29.77,SSE,163,1.0,1.0,74,0.00,,,0.00,weatherlink.com 1.10,2013-10-10 09:52:00,
2013-10-10 04:07:00,37.2,29.0,29.77,SSE,163,0.0,1.0,73,0.00,,,0.00,weatherlink.com 1.10,2013-10-10 10:07:00,
2013-10-10 04:22:00,40.8,30.0,29.77,SE,146,0.0,15.0,65,0.00,,,0.00,weatherlink.com 1.10,2013-10-10 10:22:00,
2013-10-10 04:37:00,41.6,30.0,29.76,SSE,148,0.0,1.0,63,0.00,,,0.00,weatherlink.com 1.10,2013-10-10 10:37:00,
2013-10-10 04:52:00,40.8,31.0,29.75,SSE,168,0.0,1.0,67,0.00,,,0.00,weatherlink.com 1.10,2013-10-10 10:52:00,
2013-10-10 05:07:00,41.1,31.0,29.75,SE,145,0.0,2.0,68,0.00,,,0.00,weatherlink.com 1.10,2013-10-10 11:07:00,
2013-10-10 05:22:00,40.3,31.0,29.75,SE,144,0.0,2.0,69,0.00,,,0.00,weatherlink.com 1.10,2013-10-10 11:22:00,
2013-10-10 05:37:00,39.6,31.0,29.74,SE,145,0.0,1.0,72,0.00,,,0.00,weatherlink.com 1.10,2013-10-10 11:37:00,
2013-10-10 05:52:00,39.1,31.0,29.72,SSE,153,1.0,1.0,74,0.00,,,0.00,weatherlink.com 1.10,2013-10-10 11:52:00,
2013-10-10 06:08:00,38.8,32.0,29.72,SSE,153,0.0,1.0,77,0.00,,,0.00,weatherlink.com 1.10,2013-10-10 12:08:00,
2013-10-10 06:23:00,38.5,32.0,29.71,SSE,163,0.0,2.0,77,0.00,,,0.00,weatherlink.com 1.10,2013-10-10 12:23:00,
2013-10-10 06:38:00,38.8,32.0,29.70,SSE,148,0.0,3.0,75,0.00,,,0.00,weatherlink.com 1.10,2013-10-10 12:38:00,
2013-10-10 06:53:00,38.7,31.0,29.70,SSE,150,0.0,1.0,75,0.00,,,0.00,weatherlink.com 1.10,2013-10-10 12:53:00,
2013-10-10 07:08:00,38.4,31.0,29.69,SSE,150,0.0,0.0,75,0.00,,,0.00,weatherlink.com 1.10,2013-10-10 13:08:00,
2013-10-10 07:23:00,37.8,31.0,29.68,SSE,150,0.0,1.0,75,0.00,,,0.00,weatherlink.com 1.10,2013-10-10 13:23:00,
2013-10-10 07:38:00,37.4,31.0,29.68,SSE,167,0.0,0.0,78,0.00,,,0.00,weatherlink.com 1.10,2013-10-10 13:38:00,
2013-10-10 07:53:00,37.5,32.0,29.67,SSE,167,0.0,0.0,79,0.00,,,0.00,weatherlink.com 1.10,2013-10-10 13:53:00,
2013-10-10 08:08:00,38.0,32.0,29.66,SSE,167,0.0,0.0,79,0.00,,,0.00,weatherlink.com 1.10,2013-10-10 14:08:00,
2013-10-10 08:23:00,38.8,32.0,29.65,South,169,0.0,2.0,77,0.00,,,0.00,weatherlink.com 1.10,2013-10-10 14:23:00,
2013-10-10 08:38:00,40.2,33.0,29.65,SE,131,1.0,4.0,74,0.00,,,0.00,weatherlink.com 1.10,2013-10-10 14:38:00,
2013-10-10 08:53:00,42.7,31.0,29.63,South,179,1.0,4.0,63,0.00,,,0.00,weatherlink.com 1.10,2013-10-10 14:53:00,
2013-10-10 09:08:00,44.4,30.0,29.63,SE,136,0.0,3.0,57,0.00,,,0.00,weatherlink.com 1.10,2013-10-10 15:08:00,
2013-10-10 09:23:00,44.9,29.0,29.62,SE,139,0.0,5.0,53,0.00,,,0.00,weatherlink.com 1.10,2013-10-10 15:23:00,
2013-10-10 09:38:00,45.0,29.0,29.61,SSE,152,0.0,11.0,53,0.00,,,0.00,weatherlink.com 1.10,2013-10-10 15:38:00,
2013-10-10 09:53:00,45.3,27.0,29.61,SE,136,0.0,5.0,50,0.00,,,0.00,weatherlink.com 1.10,2013-10-10 15:53:00,
2013-10-10 10:08:00,45.3,28.0,29.59,SSE,165,0.0,6.0,52,0.00,,,0.00,weatherlink.com 1.10,2013-10-10 16:08:00,
2013-10-10 10:23:00,44.8,28.0,29.58,South,173,4.0,11.0,52,0.00,,,0.00,weatherlink.com 1.10,2013-10-10 16:23:00,
2013-10-10 10:38:00,44.2,27.0,29.58,NNW,328,4.0,5.0,52,0.00,,,0.00,weatherlink.com 1.10,2013-10-10 16:38:00,
2013-10-10 10:53:00,44.1,28.0,29.58,SE,127,4.0,4.0,53,0.00,,,0.00,weatherlink.com 1.10,2013-10-10 16:53:00,
2013-10-10 11:08:00,43.8,28.0,29.57,South,170,0.0,9.0,54,0.00,,,0.00,weatherlink.com 1.10,2013-10-10 17:08:00,
2013-10-10 11:23:00,43.8,29.0,29.57,SSE,150,0.0,8.0,56,0.00,,,0.00,weatherlink.com 1.10,2013-10-10 17:23:00,
2013-10-10 11:38:00,43.5,29.0,29.56,SSE,150,0.0,1.0,56,0.00,,,0.00,weatherlink.com 1.10,2013-10-10 17:38:00,
2013-10-10 11:53:00,43.5,27.0,29.57,ESE,122,4.0,4.0,52,0.00,,,0.00,weatherlink.com 1.10,2013-10-10 17:53:00,
2013-10-10 12:08:00,43.8,24.0,29.56,South,177,1.0,7.0,46,0.00,,,0.00,weatherlink.com 1.10,2013-10-10 18:08:00,
2013-10-10 12:23:00,44.0,24.0,29.53,SSE,153,0.0,2.0,45,0.00,,,0.00,weatherlink.com 1.10,2013-10-10 18:23:00,
2013-10-10 12:38:00,43.7,25.0,29.52,SSE,160,0.0,6.0,48,0.00,,,0.00,weatherlink.com 1.10,2013-10-10 18:38:00,
2013-10-10 12:53:00,43.8,25.0,29.51,SSE,162,0.0,3.0,48,0.00,,,0.00,weatherlink.com 1.10,2013-10-10 18:53:00,
2013-10-10 13:08:00,43.1,29.0,29.49,South,170,0.0,2.0,57,0.00,,,0.00,weatherlink.com 1.10,2013-10-10 19:08:00,
2013-10-10 13:23:00,42.9,28.0,29.50,ESE,114,4.0,5.0,56,0.00,,,0.00,weatherlink.com 1.10,2013-10-10 19:23:00,
2013-10-10 13:38:00,37.2,31.0,29.53,SE,127,7.0,18.0,79,0.00,,,0.00,weatherlink.com 1.10,2013-10-10 19:38:00,
2013-10-10 13:54:00,34.0,31.0,29.54,SW,222,2.0,7.0,87,0.00,,,0.00,weatherlink.com 1.10,2013-10-10 19:54:00,
2013-10-10 14:09:00,33.0,30.0,29.55,SE,130,2.0,8.0,89,0.00,,,0.00,weatherlink.com 1.10,2013-10-10 20:09:00,
2013-10-10 14:24:00,32.7,30.0,29.58,SE,144,1.0,13.0,90,0.00,,,0.00,weatherlink.com 1.10,2013-10-10 20:24:00,
2013-10-10 14:39:00,32.5,30.0,29.57,SE,139,0.0,2.0,91,0.00,,,0.00,weatherlink.com 1.10,2013-10-10 20:39:00,
2013-10-10 14:54:00,32.6,31.0,29.58,SE,139,0.0,0.0,92,0.00,,,0.00,weatherlink.com 1.10,2013-10-10 20:54:00,
2013-10-10 15:09:00,32.6,31.0,29.59,SSE,148,0.0,1.0,93,0.00,,,0.00,weatherlink.com 1.10,2013-10-10 21:09:00,
2013-10-10 15:24:00,32.7,31.0,29.58,SSE,148,0.0,0.0,93,0.00,,,0.00,weatherlink.com 1.10,2013-10-10 21:24:00,
2013-10-10 15:39:00,32.5,31.0,29.56,SE,143,0.0,1.0,93,0.00,,,0.00,weatherlink.com 1.10,2013-10-10 21:39:00,
2013-10-10 15:54:00,32.9,31.0,29.55,SE,144,0.0,0.0,93,0.00,,,0.00,weatherlink.com 1.10,2013-10-10 21:54:00,
2013-10-10 16:09:00,32.4,31.0,29.56,SE,132,0.0,1.0,93,0.00,,,0.00,weatherlink.com 1.10,2013-10-10 22:09:00,
2013-10-10 16:24:00,32.4,31.0,29.57,ESE,121,0.0,0.0,93,0.00,,,0.00,weatherlink.com 1.10,2013-10-10 22:24:00,
2013-10-10 16:39:00,32.7,30.0,29.59,SE,127,1.0,2.0,90,0.00,,,0.00,weatherlink.com 1.10,2013-10-10 22:39:00,
2013-10-10 16:54:00,32.5,30.0,29.58,SE,143,0.0,4.0,90,0.00,,,0.00,weatherlink.com 1.10,2013-10-10 22:54:00,
2013-10-10 17:09:00,32.3,30.0,29.59,SSE,163,0.0,5.0,91,0.00,,,0.00,weatherlink.com 1.10,2013-10-10 23:09:00,
2013-10-10 17:24:00,32.2,29.0,29.58,SSE,158,0.0,3.0,87,0.00,,,0.00,weatherlink.com 1.10,2013-10-10 23:24:00,
2013-10-10 17:39:00,32.1,29.0,29.57,SSE,160,0.0,1.0,89,0.00,,,0.00,weatherlink.com 1.10,2013-10-10 23:39:00,
2013-10-10 17:54:00,32.1,30.0,29.56,SSE,160,0.0,0.0,91,0.00,,,0.00,weatherlink.com 1.10,2013-10-10 23:54:00,
2013-10-10 18:09:00,31.8,30.0,29.57,SSE,160,0.0,0.0,91,0.00,,,0.00,weatherlink.com 1.10,2013-10-11 00:09:00,
2013-10-10 18:24:00,31.6,30.0,29.58,SSE,160,0.0,0.0,92,0.00,,,0.00,weatherlink.com 1.10,2013-10-11 00:24:00,
2013-10-10 18:39:00,31.3,29.0,29.59,SSE,160,0.0,0.0,92,0.00,,,0.00,weatherlink.com 1.10,2013-10-11 00:39:00,
2013-10-10 18:54:00,31.2,29.0,29.59,SSE,160,0.0,0.0,93,0.00,,,0.00,weatherlink.com 1.10,2013-10-11 00:54:00,
2013-10-10 19:09:00,31.1,29.0,29.59,SSE,151,0.0,0.0,93,0.00,,,0.00,weatherlink.com 1.10,2013-10-11 01:09:00,
2013-10-10 19:24:00,30.7,29.0,29.59,SE,129,1.0,3.0,92,0.00,,,0.00,weatherlink.com 1.10,2013-10-11 01:24:00,
2013-10-10 19:39:00,30.7,28.0,29.60,SE,134,1.0,4.0,91,0.00,,,0.00,weatherlink.com 1.10,2013-10-11 01:39:00,
2013-10-10 19:54:00,30.8,28.0,29.61,SE,136,2.0,4.0,88,0.00,,,0.00,weatherlink.com 1.10,2013-10-11 01:54:00,
2013-10-10 20:09:00,30.9,28.0,29.62,SSE,149,0.0,8.0,88,0.00,,,0.00,weatherlink.com 1.10,2013-10-11 02:09:00,
2013-10-10 20:24:00,30.8,28.0,29.63,SE,142,1.0,5.0,88,0.00,,,0.00,weatherlink.com 1.10,2013-10-11 02:24:00,
2013-10-10 20:39:00,30.4,28.0,29.64,ESE,113,5.0,5.0,91,0.00,,,0.00,weatherlink.com 1.10,2013-10-11 02:39:00,
2013-10-10 20:54:00,30.6,27.0,29.66,ESE,122,4.0,7.0,87,0.00,,,0.00,weatherlink.com 1.10,2013-10-11 02:54:00,
2013-10-10 21:09:00,30.2,28.0,29.66,ESE,120,8.0,9.0,90,0.00,,,0.00,weatherlink.com 1.10,2013-10-11 03:09:00,
2013-10-10 21:24:00,29.6,27.0,29.68,SE,124,7.0,12.0,89,0.00,,,0.00,weatherlink.com 1.10,2013-10-11 03:24:00,
2013-10-10 21:40:00,29.6,27.0,29.69,ESE,109,12.0,12.0,88,0.00,,,0.00,weatherlink.com 1.10,2013-10-11 03:40:00,
2013-10-10 21:55:00,29.7,26.0,29.71,ESE,108,4.0,16.0,87,0.00,,,0.00,weatherlink.com 1.10,2013-10-11 03:55:00,
2013-10-10 22:10:00,29.6,26.0,29.72,SE,136,3.0,12.0,87,0.00,,,0.00,weatherlink.com 1.10,2013-10-11 04:10:00,
2013-10-10 22:25:00,29.7,26.0,29.72,ESE,121,6.0,16.0,85,0.00,,,0.00,weatherlink.com 1.10,2013-10-11 04:25:00,
2013-10-10 22:40:00,29.7,26.0,29.74,SE,130,2.0,12.0,85,0.00,,,0.00,weatherlink.com 1.10,2013-10-11 04:40:00,
2013-10-10 22:55:00,29.6,26.0,29.75,SE,131,2.0,8.0,86,0.00,,,0.00,weatherlink.com 1.10,2013-10-11 04:55:00,
2013-10-10 23:10:00,29.5,26.0,29.75,SE,125,5.0,10.0,87,0.00,,,0.00,weatherlink.com 1.10,2013-10-11 05:10:00,
2013-10-10 23:25:00,29.3,26.0,29.75,SE,143,0.0,15.0,87,0.00,,,0.00,weatherlink.com 1.10,2013-10-11 05:25:00,
2013-10-10 23:40:00,29.1,26.0,29.75,SE,131,2.0,13.0,88,0.00,,,0.00,weatherlink.com 1.10,2013-10-11 05:40:00,
2013-10-10 23:55:00,29.2,26.0,29.75,ESE,110,7.0,13.0,86,0.00,,,0.00,weatherlink.com 1.10,2013-10-11 05:55:00,